Time;durP1;ratioP1;P1;durP2;ratioP2;P2;SDS_P1;SDS_P2;PMS_P1;PMS_P2;Temp;Humidity;BMP_temperature;BMP_pressure;BME280_temperature;BME280_humidity;BME280_pressure;Samples;Min_cycle;Max_cycle;Signal;HPM_P1;HPM_P2
2022/11/26 00:02:24;;;;;;;10.43;8.57;;;6.90;99.90;;;;;;5094399;27;21018;-81
2022/11/26 00:04:54;;;;;;;10.43;9.83;;;6.90;99.90;;;;;;5099393;28;20465;-82
2022/11/26 00:07:25;;;;;;;9.83;9.10;;;6.90;99.90;;;;;;5105421;27;20469;-81
2022/11/26 00:09:55;;;;;;;9.63;8.83;;;6.90;1.00;;;;;;5094579;28;20507;-81
2022/11/26 00:12:25;;;;;;;9.90;9.20;;;6.90;93.90;;;;;;5100256;27;20517;-81
2022/11/26 00:14:54;;;;;;;8.60;8.20;;;7.00;1.00;;;;;;5090910;28;20481;-80
2022/11/26 00:17:24;;;;;;;9.83;8.93;;;7.00;99.90;;;;;;5089975;28;20960;-81
2022/11/26 00:19:53;;;;;;;9.13;8.43;;;6.90;99.90;;;;;;5093094;28;21031;-81
2022/11/26 00:22:24;;;;;;;8.73;8.10;;;6.80;99.90;;;;;;5088894;28;20458;-81
2022/11/26 00:24:53;;;;;;;8.83;8.13;;;6.80;1.00;;;;;;5093561;28;20712;-80
2022/11/26 00:27:24;;;;;;;8.50;7.97;;;6.90;1.00;;;;;;5089973;28;21141;-80
2022/11/26 00:29:53;;;;;;;8.63;8.00;;;7.00;99.90;;;;;;5091069;28;20460;-82
2022/11/26 00:32:25;;;;;;;8.43;8.03;;;6.80;1.00;;;;;;5090691;28;20452;-80
2022/11/26 00:34:54;;;;;;;8.23;7.73;;;6.90;1.00;;;;;;5094160;28;20994;-81
2022/11/26 00:37:27;;;;;;;7.87;7.23;;;7.00;99.90;;;;;;5087534;28;20459;-80
2022/11/26 00:39:56;;;;;;;8.47;7.70;;;7.10;1.00;;;;;;5096308;28;20458;-80
2022/11/26 00:42:24;;;;;;;8.50;7.90;;;7.10;72.60;;;;;;5087891;27;20533;-80
2022/11/26 00:44:52;;;;;;;9.00;8.50;;;7.10;1.00;;;;;;5085934;28;20544;-79
2022/11/26 00:47:20;;;;;;;8.90;8.00;;;7.00;8.00;;;;;;5089708;28;20443;-80
2022/11/26 00:49:50;;;;;;;9.83;9.13;;;7.00;99.90;;;;;;5091404;27;20506;-81
2022/11/26 00:52:28;;;;;;;9.07;8.33;;;7.10;58.70;;;;;;5093305;27;20464;-79
2022/11/26 00:54:56;;;;;;;9.53;8.53;;;7.00;1.00;;;;;;5092606;28;20478;-80
2022/11/26 00:57:24;;;;;;;9.90;9.40;;;7.00;1.00;;;;;;5092302;27;20469;-80
2022/11/26 00:59:52;;;;;;;10.27;9.53;;;6.90;99.90;;;;;;5088417;28;20459;-80
2022/11/26 01:02:20;;;;;;;10.73;10.20;;;6.90;99.90;;;;;;5089288;27;20605;-81
2022/11/26 01:04:50;;;;;;;8.90;8.50;;;6.90;1.00;;;;;;5089641;28;20463;-79
2022/11/26 01:07:18;;;;;;;9.23;8.63;;;6.90;1.00;;;;;;5089778;28;20454;-81
2022/11/26 01:09:47;;;;;;;9.63;8.90;;;6.90;1.00;;;;;;5093613;27;20467;-81
2022/11/26 01:12:15;;;;;;;8.30;7.80;;;6.90;99.90;;;;;;5094277;27;20450;-80
2022/11/26 01:14:44;;;;;;;9.77;9.23;;;6.80;99.90;;;;;;5094044;28;20494;-81
2022/11/26 01:17:12;;;;;;;9.70;9.07;;;6.70;1.00;;;;;;5090853;27;20509;-80
2022/11/26 01:19:40;;;;;;;8.73;8.33;;;6.70;99.90;;;;;;5090529;27;21077;-80
2022/11/26 01:22:20;;;;;;;9.40;8.80;;;6.70;99.90;;;;;;5089804;28;20477;-81
2022/11/26 01:24:49;;;;;;;9.97;9.13;;;6.60;99.90;;;;;;5088707;27;20464;-80
2022/11/26 01:27:20;;;;;;;10.07;9.37;;;6.80;1.00;;;;;;5089790;28;20986;-80
2022/11/26 01:29:48;;;;;;;9.37;8.57;;;6.90;1.00;;;;;;5086441;28;20457;-82
2022/11/26 01:32:16;;;;;;;9.13;8.63;;;7.00;1.00;;;;;;5088660;28;20462;-80
2022/11/26 01:34:45;;;;;;;10.03;9.13;;;7.00;1.00;;;;;;5091961;28;20475;-80
2022/11/26 01:37:15;;;;;;;9.70;8.87;;;6.90;1.00;;;;;;5085843;28;20493;-80
2022/11/26 01:39:43;;;;;;;10.50;9.80;;;6.90;1.00;;;;;;5090517;28;20492;-80
2022/11/26 01:42:25;;;;;;;9.73;9.10;;;6.90;1.00;;;;;;5084576;28;20557;-81
2022/11/26 01:44:53;;;;;;;10.77;10.00;;;6.80;1.00;;;;;;5091349;27;20493;-80
2022/11/26 01:47:24;;;;;;;9.87;9.37;;;6.80;1.00;;;;;;5087018;28;20792;-80
2022/11/26 01:50:29;;;;;;;11.80;10.00;;;6.80;1.00;;;;;;5094737;28;20459;-80
2022/11/26 01:53:02;;;;;;;9.20;8.70;;;6.80;1.00;;;;;;5086654;28;20454;-82
2022/11/26 01:55:36;;;;;;;9.97;9.17;;;6.80;1.00;;;;;;5096206;28;20806;-80
2022/11/26 01:58:09;;;;;;;10.00;9.17;;;6.80;1.00;;;;;;5092319;28;20472;-80
2022/11/26 02:00:37;;;;;;;10.20;9.50;;;6.80;1.00;;;;;;5096270;27;20450;-80
2022/11/26 02:03:06;;;;;;;9.87;9.40;;;6.80;1.00;;;;;;5091724;28;20461;-80
2022/11/26 02:05:39;;;;;;;9.40;8.90;;;6.80;1.00;;;;;;5091650;28;20471;-81
2022/11/26 02:08:10;;;;;;;10.37;9.77;;;6.70;1.00;;;;;;5091636;27;20528;-79
2022/11/26 02:10:39;;;;;;;9.80;9.07;;;6.60;99.90;;;;;;5090789;28;20472;-81
2022/11/26 02:13:07;;;;;;;8.80;8.30;;;6.60;1.00;;;;;;5095325;27;20485;-81
2022/11/26 02:15:41;;;;;;;9.27;8.53;;;6.40;99.90;;;;;;5100019;28;20490;-81
2022/11/26 02:18:10;;;;;;;9.53;8.77;;;6.50;1.00;;;;;;5096231;27;20477;-81
2022/11/26 02:20:49;;;;;;;9.73;8.90;;;6.60;1.00;;;;;;5095781;28;20445;-80
2022/11/26 02:23:58;;;;;;;9.80;8.80;;;6.50;1.00;;;;;;5096562;28;20446;-81
2022/11/26 02:26:57;;;;;;;9.80;8.83;;;6.50;1.00;;;;;;5088240;28;20484;-80
2022/11/26 02:29:41;;;;;;;8.47;7.90;;;6.50;1.00;;;;;;5090404;27;20466;-82
2022/11/26 02:32:14;;;;;;;9.30;8.47;;;6.40;99.90;;;;;;5089182;28;20531;-81
2022/11/26 02:34:48;;;;;;;10.93;10.03;;;6.30;99.90;;;;;;5088864;28;20476;-81
2022/11/26 02:37:21;;;;;;;8.77;8.07;;;6.30;1.00;;;;;;5088540;28;20527;-79
2022/11/26 02:39:50;;;;;;;8.67;8.17;;;6.30;1.00;;;;;;5084942;28;20468;-79
2022/11/26 02:42:25;;;;;;;8.67;7.97;;;6.30;1.00;;;;;;5081871;27;20982;-79
2022/11/26 02:44:57;;;;;;;8.60;8.20;;;6.30;1.00;;;;;;5086838;28;20848;-78
2022/11/26 02:47:28;;;;;;;8.70;8.20;;;6.40;1.00;;;;;;5091907;28;20468;-79
2022/11/26 02:50:00;;;;;;;8.70;8.00;;;6.40;1.00;;;;;;5085603;28;20992;-81
2022/11/26 02:52:30;;;;;;;9.63;8.97;;;6.40;1.00;;;;;;5091390;28;20530;-80
2022/11/26 02:55:00;;;;;;;8.43;7.83;;;6.30;1.00;;;;;;5090853;28;20486;-81
2022/11/26 02:57:33;;;;;;;8.90;8.40;;;6.30;1.00;;;;;;5093941;28;20543;-81
2022/11/26 03:00:04;;;;;;;9.63;9.03;;;6.30;1.00;;;;;;5097775;28;20449;-81
2022/11/26 03:02:36;;;;;;;8.97;8.37;;;6.30;1.00;;;;;;5096983;27;21040;-82
2022/11/26 03:05:06;;;;;;;8.87;8.33;;;6.40;1.00;;;;;;5087650;28;20488;-79
2022/11/26 03:07:35;;;;;;;9.27;8.40;;;6.40;1.00;;;;;;5096356;28;20456;-79
2022/11/26 03:10:05;;;;;;;9.00;8.50;;;6.40;1.00;;;;;;5085834;28;20461;-81
2022/11/26 03:12:33;;;;;;;9.77;9.17;;;6.50;1.00;;;;;;5091167;28;20454;-80
2022/11/26 03:15:02;;;;;;;9.57;8.87;;;6.50;1.00;;;;;;5092319;28;20511;-78
2022/11/26 03:17:31;;;;;;;10.33;9.43;;;6.40;1.00;;;;;;5090418;28;20470;-81
2022/11/26 03:19:59;;;;;;;10.00;8.93;;;6.50;1.00;;;;;;5090934;27;20535;-78
2022/11/26 03:22:28;;;;;;;10.23;9.50;;;6.50;1.00;;;;;;5094017;28;20454;-78
2022/11/26 03:24:56;;;;;;;10.23;9.53;;;6.60;1.00;;;;;;5092052;28;20466;-80
2022/11/26 03:27:24;;;;;;;9.67;9.10;;;6.60;1.00;;;;;;5092547;27;20444;-81
2022/11/26 03:29:52;;;;;;;9.90;9.30;;;6.60;1.00;;;;;;5092078;28;20439;-80
2022/11/26 03:32:22;;;;;;;10.03;9.40;;;6.50;1.00;;;;;;5094542;27;20462;-80
2022/11/26 03:34:50;;;;;;;10.33;9.40;;;6.60;1.00;;;;;;5088817;28;20475;-79
2022/11/26 03:37:18;;;;;;;10.00;9.30;;;6.60;1.00;;;;;;5096215;27;20485;-81
2022/11/26 03:39:46;;;;;;;9.27;8.87;;;6.50;1.00;;;;;;5093256;28;20449;-80
2022/11/26 03:42:14;;;;;;;9.60;9.00;;;6.50;1.00;;;;;;5088478;28;20541;-79
2022/11/26 03:44:42;;;;;;;9.87;9.37;;;6.40;1.00;;;;;;5091592;27;21624;-78
2022/11/26 03:47:10;;;;;;;9.20;8.73;;;6.40;1.00;;;;;;5096410;27;20438;-79
2022/11/26 03:49:40;;;;;;;9.77;8.93;;;6.40;1.00;;;;;;5098291;27;20469;-79
2022/11/26 03:52:08;;;;;;;10.33;8.50;;;6.50;1.00;;;;;;5100706;27;20457;-80
2022/11/26 03:54:36;;;;;;;10.33;9.63;;;6.50;1.00;;;;;;5097218;27;20484;-80
2022/11/26 03:57:05;;;;;;;10.00;9.50;;;6.50;1.00;;;;;;5095492;27;20512;-79
2022/11/26 03:59:33;;;;;;;10.10;9.40;;;6.50;1.00;;;;;;5094648;27;20455;-79
2022/11/26 04:02:01;;;;;;;10.47;9.50;;;6.50;1.00;;;;;;5093124;28;20463;-78
2022/11/26 04:04:30;;;;;;;9.70;9.10;;;6.60;1.00;;;;;;5088338;28;20495;-80
2022/11/26 04:06:59;;;;;;;10.10;9.20;;;6.60;1.00;;;;;;5087341;28;21351;-79
2022/11/26 04:09:27;;;;;;;9.70;9.00;;;6.60;1.00;;;;;;5095557;27;20450;-79
2022/11/26 04:11:55;;;;;;;9.13;8.63;;;6.60;1.00;;;;;;5097576;27;21034;-79
2022/11/26 04:14:23;;;;;;;9.10;8.70;;;6.70;1.00;;;;;;5091481;27;21052;-78
2022/11/26 04:16:52;;;;;;;10.27;9.60;;;6.60;1.00;;;;;;5091906;27;20551;-79
2022/11/26 04:19:20;;;;;;;9.90;9.30;;;6.60;1.00;;;;;;5101236;27;20560;-79
2022/11/26 04:21:48;;;;;;;9.80;9.40;;;6.50;1.00;;;;;;5096356;27;21275;-80
2022/11/26 04:24:17;;;;;;;10.47;9.60;;;6.50;1.00;;;;;;5097239;28;20458;-82
2022/11/26 04:26:46;;;;;;;9.57;8.97;;;6.40;1.00;;;;;;5097784;27;20454;-80
2022/11/26 04:29:14;;;;;;;11.37;10.30;;;6.40;1.00;;;;;;5094138;27;21069;-81
2022/11/26 04:31:42;;;;;;;12.83;11.67;;;6.30;1.00;;;;;;5096771;27;20531;-80
2022/11/26 04:34:10;;;;;;;12.50;11.37;;;6.30;1.00;;;;;;5094100;28;20466;-80
2022/11/26 04:36:39;;;;;;;14.83;10.20;;;6.30;1.00;;;;;;5097015;27;20461;-81
2022/11/26 04:39:07;;;;;;;10.27;9.67;;;6.30;1.00;;;;;;5094547;28;20452;-79
2022/11/26 04:41:37;;;;;;;9.83;9.20;;;6.30;1.00;;;;;;5089746;28;20469;-80
2022/11/26 04:44:05;;;;;;;12.13;10.80;;;6.30;1.00;;;;;;5099354;28;20445;-82
2022/11/26 04:46:33;;;;;;;9.33;8.73;;;6.30;1.00;;;;;;5094835;27;20474;-82
2022/11/26 04:49:01;;;;;;;9.80;9.30;;;6.30;1.00;;;;;;5096719;28;20458;-81
2022/11/26 04:51:29;;;;;;;10.87;9.87;;;6.20;1.00;;;;;;5098913;28;20466;-82
2022/11/26 04:53:58;;;;;;;9.10;8.40;;;6.10;1.00;;;;;;5097633;27;20457;-82
2022/11/26 04:56:30;;;;;;;8.60;8.20;;;6.00;1.00;;;;;;5092527;28;20473;-81
2022/11/26 04:58:59;;;;;;;8.70;8.10;;;5.90;1.00;;;;;;5092852;28;20485;-82
2022/11/26 05:01:28;;;;;;;8.00;7.70;;;5.90;1.00;;;;;;5089197;28;20528;-81
2022/11/26 05:03:56;;;;;;;9.57;8.93;;;5.90;1.00;;;;;;5095855;28;20481;-80
2022/11/26 05:06:24;;;;;;;9.43;8.63;;;5.80;1.00;;;;;;5089861;27;20493;-81
2022/11/26 05:08:52;;;;;;;7.90;7.60;;;5.90;1.00;;;;;;5099036;28;20446;-83
2022/11/26 05:11:21;;;;;;;8.70;8.20;;;5.80;99.90;;;;;;5093425;27;20511;-84
2022/11/26 05:13:49;;;;;;;8.73;8.03;;;5.70;99.90;;;;;;5097542;27;20449;-81
2022/11/26 05:16:18;;;;;;;8.60;8.10;;;5.70;1.00;;;;;;5093101;28;20493;-82
2022/11/26 05:18:47;;;;;;;8.60;8.10;;;5.80;1.00;;;;;;5094114;28;20534;-81
2022/11/26 05:21:15;;;;;;;8.87;8.03;;;6.00;1.00;;;;;;5096932;28;20465;-83
2022/11/26 05:23:43;;;;;;;8.70;8.20;;;6.00;1.00;;;;;;5094892;27;21040;-82
2022/11/26 05:26:11;;;;;;;9.90;9.10;;;5.80;1.00;;;;;;5095727;27;21095;-83
2022/11/26 05:28:39;;;;;;;9.50;8.67;;;5.90;1.00;;;;;;5099803;27;20825;-82
2022/11/26 05:31:08;;;;;;;9.20;8.70;;;6.00;1.00;;;;;;5094825;27;20888;-82
2022/11/26 05:33:38;;;;;;;9.40;8.47;;;6.00;1.00;;;;;;5091627;28;20465;-82
2022/11/26 05:36:06;;;;;;;9.20;8.80;;;6.00;1.00;;;;;;5093350;28;20465;-81
2022/11/26 05:38:34;;;;;;;9.63;9.03;;;5.90;1.00;;;;;;5090345;27;20506;-82
2022/11/26 05:41:03;;;;;;;8.97;8.47;;;5.70;99.90;;;;;;5095658;27;20559;-81
2022/11/26 05:43:31;;;;;;;8.10;7.60;;;5.50;1.00;;;;;;5096757;27;20948;-81
2022/11/26 05:46:04;;;;;;;8.47;7.97;;;5.60;1.00;;;;;;5093010;28;20477;-80
2022/11/26 05:48:33;;;;;;;8.57;8.00;;;5.50;99.90;;;;;;5098082;27;20426;-80
2022/11/26 05:51:03;;;;;;;7.90;7.50;;;5.40;99.90;;;;;;5099860;28;20464;-80
2022/11/26 05:53:31;;;;;;;7.83;7.30;;;5.40;99.90;;;;;;5096824;27;20499;-81
2022/11/26 05:55:59;;;;;;;7.53;7.23;;;5.50;99.90;;;;;;5097388;28;20469;-81
2022/11/26 05:58:27;;;;;;;8.17;7.67;;;5.50;1.00;;;;;;5096903;27;20485;-80
2022/11/26 06:00:55;;;;;;;9.17;8.30;;;5.40;99.90;;;;;;5094806;27;20445;-82
2022/11/26 06:03:23;;;;;;;8.20;7.33;;;5.40;99.90;;;;;;5099516;27;20565;-82
2022/11/26 06:05:53;;;;;;;8.73;8.10;;;5.40;99.90;;;;;;5097347;28;20488;-82
2022/11/26 06:08:22;;;;;;;7.87;7.27;;;5.30;99.90;;;;;;5108510;27;20502;-81
2022/11/26 06:10:50;;;;;;;7.10;6.80;;;5.20;1.00;;;;;;5098648;27;20469;-79
2022/11/26 06:13:19;;;;;;;8.00;7.37;;;5.20;99.90;;;;;;5095243;28;20449;-81
2022/11/26 06:15:47;;;;;;;10.00;8.67;;;5.20;99.90;;;;;;5093229;28;20482;-81
2022/11/26 06:18:16;;;;;;;8.37;7.77;;;5.20;99.90;;;;;;5095569;28;20476;-80
2022/11/26 06:20:45;;;;;;;7.63;7.07;;;5.10;99.90;;;;;;5090190;28;20448;-80
2022/11/26 06:23:13;;;;;;;7.70;7.20;;;5.10;99.90;;;;;;5093256;28;20442;-79
2022/11/26 06:25:43;;;;;;;7.47;6.87;;;5.00;1.00;;;;;;5090995;28;20518;-81
2022/11/26 06:28:11;;;;;;;7.57;7.07;;;5.00;1.00;;;;;;5093426;28;20460;-81
2022/11/26 06:30:39;;;;;;;7.83;7.33;;;5.00;99.90;;;;;;5093326;28;20461;-82
2022/11/26 06:33:07;;;;;;;8.03;7.53;;;5.00;99.90;;;;;;5093424;28;20543;-81
2022/11/26 06:35:35;;;;;;;8.27;7.78;;;5.10;99.90;;;;;;5093770;28;20470;-81
2022/11/26 06:38:03;;;;;;;7.18;6.68;;;4.80;1.00;;;;;;5090972;28;20239;-80
2022/11/26 06:40:31;;;;;;;9.20;7.97;;;4.80;99.90;;;;;;5092388;28;20191;-82
2022/11/26 06:43:01;;;;;;;8.17;7.40;;;4.90;98.20;;;;;;5087033;28;20445;-82
2022/11/26 06:45:29;;;;;;;7.37;6.77;;;4.80;99.90;;;;;;5091608;28;20516;-79
2022/11/26 06:47:57;;;;;;;7.73;7.23;;;4.80;99.90;;;;;;5086313;28;20588;-79
2022/11/26 06:50:26;;;;;;;7.73;7.27;;;4.90;99.90;;;;;;5091302;28;20461;-80
2022/11/26 06:52:55;;;;;;;8.43;7.83;;;4.80;1.00;;;;;;5094044;28;20502;-79
2022/11/26 06:55:23;;;;;;;8.07;7.47;;;4.80;99.90;;;;;;5093814;28;20468;-81
2022/11/26 06:57:51;;;;;;;11.53;6.90;;;4.90;1.00;;;;;;5090309;28;20527;-79
2022/11/26 07:00:21;;;;;;;7.23;6.73;;;4.70;1.00;;;;;;5092069;28;21060;-79
2022/11/26 07:02:49;;;;;;;8.20;7.60;;;4.80;1.00;;;;;;5092404;28;20524;-79
2022/11/26 07:05:18;;;;;;;7.77;7.27;;;4.80;1.00;;;;;;5096512;28;20399;-78
2022/11/26 07:07:46;;;;;;;8.90;8.00;;;4.70;1.00;;;;;;5101962;28;20469;-82
2022/11/26 07:10:14;;;;;;;8.77;8.17;;;4.70;99.90;;;;;;5084570;28;21011;-77
2022/11/26 07:12:43;;;;;;;8.52;7.72;;;4.60;99.90;;;;;;5084595;28;20463;-77
2022/11/26 07:15:11;;;;;;;8.37;7.73;;;4.70;99.90;;;;;;5079685;28;20227;-77
2022/11/26 07:17:41;;;;;;;8.50;7.70;;;4.60;1.00;;;;;;5099757;28;20448;-81
2022/11/26 07:20:10;;;;;;;8.40;7.75;;;4.60;99.90;;;;;;5088720;28;20469;-81
2022/11/26 07:22:38;;;;;;;7.80;7.20;;;4.60;1.00;;;;;;5093604;28;20919;-81
2022/11/26 07:25:06;;;;;;;9.00;8.10;;;4.60;99.90;;;;;;5086847;28;20499;-80
2022/11/26 07:27:39;;;;;;;7.73;7.23;;;4.70;64.20;;;;;;5092332;28;20463;-79
2022/11/26 07:30:09;;;;;;;8.83;8.00;;;4.60;99.90;;;;;;5094406;28;20445;-81
2022/11/26 07:32:37;;;;;;;8.70;8.20;;;4.70;99.90;;;;;;5093243;28;21116;-80
2022/11/26 07:35:07;;;;;;;8.47;7.57;;;4.60;1.00;;;;;;5092389;28;20389;-80
2022/11/26 07:37:35;;;;;;;7.67;6.83;;;4.60;1.00;;;;;;5096073;28;20454;-81
2022/11/26 07:40:05;;;;;;;7.80;7.20;;;4.70;1.00;;;;;;5097499;28;20474;-81
2022/11/26 07:42:34;;;;;;;8.02;7.35;;;4.70;1.00;;;;;;5099970;27;20458;-81
2022/11/26 07:45:03;;;;;;;8.93;8.33;;;4.70;79.70;;;;;;5096585;27;20286;-81
2022/11/26 07:47:31;;;;;;;8.03;7.43;;;4.60;99.90;;;;;;5099485;27;20445;-80
2022/11/26 07:50:00;;;;;;;10.20;9.30;;;4.70;1.00;;;;;;5102114;27;20449;-81
2022/11/26 07:52:29;;;;;;;9.50;8.67;;;4.80;99.90;;;;;;5103383;27;20444;-80
2022/11/26 07:54:57;;;;;;;9.30;8.70;;;4.90;70.50;;;;;;5097574;27;20615;-80
2022/11/26 07:57:25;;;;;;;10.40;9.50;;;5.00;1.00;;;;;;5096233;28;20473;-81
2022/11/26 07:59:53;;;;;;;9.27;8.67;;;5.10;99.90;;;;;;5095558;28;20602;-80
2022/11/26 08:02:22;;;;;;;9.60;8.70;;;5.20;99.90;;;;;;5093251;27;20445;-81
2022/11/26 08:04:50;;;;;;;16.43;14.87;;;5.20;99.90;;;;;;5097244;27;20480;-81
2022/11/26 08:07:18;;;;;;;9.33;8.70;;;5.60;99.90;;;;;;5092489;28;21048;-82
2022/11/26 08:09:57;;;;;;;12.87;11.77;;;5.50;99.90;;;;;;5092103;27;20869;-80
2022/11/26 08:12:25;;;;;;;14.87;13.50;;;5.70;1.00;;;;;;5103172;28;20936;-82
2022/11/26 08:14:54;;;;;;;13.73;12.47;;;5.80;1.00;;;;;;5097991;28;20541;-81
2022/11/26 08:17:22;;;;;;;12.07;11.07;;;5.80;99.90;;;;;;5101888;27;21013;-82
2022/11/26 08:19:51;;;;;;;12.87;11.87;;;5.70;99.90;;;;;;5101417;27;20515;-82
2022/11/26 08:22:19;;;;;;;12.30;11.40;;;5.70;1.00;;;;;;5099275;27;20549;-82
2022/11/26 08:24:47;;;;;;;12.97;11.80;;;5.80;99.90;;;;;;5099119;27;20470;-80
2022/11/26 08:27:17;;;;;;;10.80;10.10;;;5.90;99.90;;;;;;5096326;27;20547;-80
2022/11/26 08:29:45;;;;;;;11.60;10.67;;;6.10;99.90;;;;;;5098344;28;20938;-83
2022/11/26 08:32:13;;;;;;;12.50;11.20;;;6.10;99.90;;;;;;5106273;27;20857;-82
2022/11/26 08:34:42;;;;;;;12.23;11.23;;;6.10;99.90;;;;;;5097357;27;20469;-81
2022/11/26 08:37:10;;;;;;;11.57;10.73;;;6.20;99.90;;;;;;5098348;27;20468;-80
2022/11/26 08:39:39;;;;;;;11.73;11.03;;;6.20;1.00;;;;;;5096902;27;20461;-81
2022/11/26 08:42:08;;;;;;;14.40;13.10;;;6.30;99.90;;;;;;5099397;27;20798;-80
2022/11/26 08:44:37;;;;;;;13.00;12.07;;;6.50;28.20;;;;;;5095187;28;20457;-80
2022/11/26 08:47:06;;;;;;;11.13;10.43;;;6.60;1.00;;;;;;5101794;27;20460;-81
2022/11/26 08:49:34;;;;;;;11.53;10.80;;;6.80;1.00;;;;;;5099561;28;21057;-81
2022/11/26 08:52:02;;;;;;;10.20;9.70;;;6.80;1.00;;;;;;5095321;28;20465;-80
2022/11/26 08:54:30;;;;;;;10.00;9.43;;;6.90;99.90;;;;;;5102908;28;20459;-81
2022/11/26 08:56:58;;;;;;;9.87;9.37;;;7.00;1.00;;;;;;5101570;28;20469;-81
2022/11/26 08:59:27;;;;;;;10.80;10.00;;;7.20;1.00;;;;;;5100457;28;20470;-81
2022/11/26 09:01:56;;;;;;;10.17;9.67;;;7.30;1.00;;;;;;5098780;28;20437;-81
2022/11/26 09:04:25;;;;;;;10.47;9.67;;;7.50;99.90;;;;;;5103855;27;20499;-82
2022/11/26 09:06:53;;;;;;;10.00;9.50;;;7.70;99.90;;;;;;5093472;28;20534;-82
2022/11/26 09:09:21;;;;;;;11.57;10.60;;;7.70;99.90;;;;;;5092734;28;20851;-81
2022/11/26 09:11:52;;;;;;;11.50;10.90;;;7.80;1.00;;;;;;5098913;28;20488;-81
2022/11/26 09:14:23;;;;;;;12.07;11.27;;;7.90;1.00;;;;;;5099458;28;20461;-82
2022/11/26 09:16:52;;;;;;;13.77;12.63;;;8.10;1.00;;;;;;5101155;27;20527;-81
2022/11/26 09:19:22;;;;;;;12.30;11.47;;;8.20;1.00;;;;;;5093324;28;20688;-81
2022/11/26 09:21:51;;;;;;;12.37;11.30;;;8.50;99.90;;;;;;5102847;28;20513;-82
2022/11/26 09:24:20;;;;;;;11.97;10.97;;;8.60;27.80;;;;;;5101022;27;20464;-81
2022/11/26 09:26:48;;;;;;;10.37;9.87;;;8.90;99.90;;;;;;5094716;27;20473;-82
2022/11/26 09:29:18;;;;;;;10.40;9.80;;;9.30;1.00;;;;;;5095651;28;20458;-82
2022/11/26 09:31:48;;;;;;;10.37;9.60;;;10.00;99.90;;;;;;5090903;27;20508;-80
2022/11/26 09:34:38;;;;;;;10.80;10.20;;;10.60;3.50;;;;;;5089323;28;20441;-81
2022/11/26 09:37:07;;;;;;;10.60;9.60;;;10.90;1.00;;;;;;5091380;27;20450;-82
2022/11/26 09:39:35;;;;;;;9.97;9.47;;;11.20;1.00;;;;;;5091177;27;20480;-80
2022/11/26 09:42:06;;;;;;;10.97;10.20;;;12.00;1.00;;;;;;5090481;27;20453;-80
2022/11/26 09:45:02;;;;;;;10.33;9.83;;;12.50;1.00;;;;;;5088852;28;20513;-81
2022/11/26 09:47:37;;;;;;;9.63;9.03;;;12.80;99.90;;;;;;5091172;28;20477;-81
2022/11/26 09:50:21;;;;;;;10.37;9.67;;;13.10;99.90;;;;;;5093819;28;20494;-80
2022/11/26 09:52:53;;;;;;;11.10;10.60;;;14.10;99.90;;;;;;5092839;28;20996;-79
2022/11/26 09:55:24;;;;;;;10.60;9.83;;;15.00;99.90;;;;;;5094892;27;20488;-79
2022/11/26 09:58:01;;;;;;;11.10;10.37;;;15.70;99.90;;;;;;5091048;28;20981;-80
2022/11/26 10:00:33;;;;;;;9.97;9.37;;;16.60;99.90;;;;;;5084366;28;20478;-79
2022/11/26 10:03:01;;;;;;;8.70;8.30;;;17.60;99.90;;;;;;5086213;28;21056;-79
2022/11/26 10:05:44;;;;;;;9.67;8.90;;;17.80;99.90;;;;;;5090613;27;20486;-80
2022/11/26 10:08:50;;;;;;;9.20;8.30;;;18.00;99.90;;;;;;5092733;27;20475;-81
2022/11/26 10:11:25;;;;;;;9.37;8.57;;;17.20;99.90;;;;;;5093639;28;20479;-81
2022/11/26 10:14:09;;;;;;;7.97;7.40;;;15.90;99.90;;;;;;5087656;28;20460;-81
2022/11/26 10:16:43;;;;;;;8.70;8.03;;;15.30;99.90;;;;;;5091697;27;20589;-79
2022/11/26 10:19:22;;;;;;;7.47;7.10;;;15.60;99.90;;;;;;5081157;28;20538;-80
2022/11/26 10:21:54;;;;;;;6.70;6.20;;;16.20;99.90;;;;;;5086134;28;20942;-82
2022/11/26 10:24:30;;;;;;;7.90;7.47;;;17.50;99.90;;;;;;5090251;28;20539;-81
2022/11/26 10:27:04;;;;;;;8.50;7.90;;;17.60;99.90;;;;;;5092183;28;20465;-80
2022/11/26 10:29:38;;;;;;;7.37;7.07;;;17.00;99.90;;;;;;5088033;28;20963;-81
2022/11/26 10:32:23;;;;;;;8.30;7.70;;;17.40;99.90;;;;;;5089469;28;20452;-79
2022/11/26 10:34:53;;;;;;;7.13;6.73;;;17.60;99.90;;;;;;5090519;28;20545;-76
2022/11/26 10:37:24;;;;;;;8.87;7.13;;;18.50;99.90;;;;;;5089668;28;20449;-79
2022/11/26 10:39:56;;;;;;;6.87;6.37;;;17.00;99.90;;;;;;5087698;28;20461;-79
2022/11/26 10:42:41;;;;;;;7.03;6.63;;;18.60;99.90;;;;;;5088117;28;20463;-77
2022/11/26 10:45:17;;;;;;;8.07;7.28;;;16.00;99.90;;;;;;5088654;28;20475;-79
2022/11/26 10:47:46;;;;;;;7.00;6.40;;;14.90;99.90;;;;;;5085501;28;20363;-79
2022/11/26 10:50:21;;;;;;;7.20;6.70;;;14.90;99.90;;;;;;5086019;28;20443;-79
2022/11/26 10:53:20;;;;;;;7.03;6.43;;;15.10;99.90;;;;;;5086141;28;20491;-80
2022/11/26 10:55:49;;;;;;;6.30;6.00;;;14.90;99.90;;;;;;5086712;28;20485;-79
2022/11/26 10:58:20;;;;;;;7.90;6.20;;;15.00;99.90;;;;;;5087124;28;20855;-80
2022/11/26 11:00:56;;;;;;;6.23;5.93;;;14.90;99.90;;;;;;5087882;28;20464;-80
2022/11/26 11:03:27;;;;;;;7.03;6.37;;;15.10;99.90;;;;;;5084780;28;20535;-77
2022/11/26 11:06:34;;;;;;;6.77;6.20;;;15.00;99.90;;;;;;5085114;28;20469;-78
2022/11/26 11:09:25;;;;;;;6.50;5.77;;;15.80;99.90;;;;;;5089687;28;20526;-78
2022/11/26 11:12:16;;;;;;;6.90;5.83;;;18.00;99.90;;;;;;5087813;28;20441;-78
2022/11/26 11:14:46;;;;;;;6.83;6.33;;;17.70;99.90;;;;;;5090492;27;21245;-78
2022/11/26 11:17:29;;;;;;;6.80;6.37;;;16.20;99.90;;;;;;5092524;28;20451;-77
2022/11/26 11:19:59;;;;;;;5.93;5.63;;;15.30;99.90;;;;;;5092526;28;20472;-77
2022/11/26 11:22:28;;;;;;;6.93;6.53;;;14.40;99.90;;;;;;5094423;28;20684;-77
2022/11/26 11:25:00;;;;;;;6.17;5.73;;;13.50;99.90;;;;;;5092971;28;20496;-79
2022/11/26 11:27:37;;;;;;;7.33;6.63;;;13.20;99.90;;;;;;5097449;28;20448;-78
2022/11/26 11:30:07;;;;;;;6.60;6.07;;;12.70;99.90;;;;;;5096242;28;20447;-78
2022/11/26 11:32:38;;;;;;;6.50;6.00;;;12.70;99.90;;;;;;5098158;28;20455;-79
2022/11/26 11:35:22;;;;;;;6.30;5.90;;;12.60;99.90;;;;;;5093727;28;20482;-78
2022/11/26 11:37:52;;;;;;;6.07;5.43;;;12.50;99.90;;;;;;5098121;27;20555;-78
2022/11/26 11:40:26;;;;;;;7.50;5.33;;;12.60;99.90;;;;;;5084867;27;20482;-77
2022/11/26 11:42:58;;;;;;;5.23;4.83;;;13.00;99.90;;;;;;5085476;27;20447;-78
2022/11/26 11:45:33;;;;;;;5.00;4.50;;;13.00;99.90;;;;;;5082372;27;20492;-77
2022/11/26 11:48:15;;;;;;;5.60;4.93;;;13.00;99.90;;;;;;5093279;28;20213;-79
2022/11/26 11:50:53;;;;;;;5.20;4.70;;;13.10;99.90;;;;;;5093419;28;20469;-76
2022/11/26 11:53:34;;;;;;;5.17;4.70;;;13.20;99.90;;;;;;5095782;27;20457;-78
2022/11/26 11:56:20;;;;;;;4.90;4.60;;;13.30;99.90;;;;;;5097296;28;20894;-78
2022/11/26 11:59:36;;;;;;;6.17;4.70;;;13.10;99.90;;;;;;5088143;27;20528;-76
2022/11/26 12:02:25;;;;;;;6.60;5.87;;;13.10;99.90;;;;;;5085567;28;20559;-76
2022/11/26 12:05:06;;;;;;;5.80;4.93;;;13.50;99.90;;;;;;5088712;27;20814;-77
2022/11/26 12:07:39;;;;;;;12.40;5.83;;;13.40;99.90;;;;;;5089427;27;20448;-78
2022/11/26 12:10:14;;;;;;;5.23;4.87;;;13.30;99.90;;;;;;5087102;28;20453;-77
2022/11/26 12:12:47;;;;;;;6.53;4.70;;;13.10;99.90;;;;;;5087875;28;20466;-78
2022/11/26 12:15:24;;;;;;;5.37;5.00;;;12.90;99.90;;;;;;5086543;28;20468;-78
2022/11/26 12:17:59;;;;;;;5.47;4.97;;;12.90;99.90;;;;;;5089946;28;20462;-77
2022/11/26 12:20:32;;;;;;;5.17;4.80;;;12.90;99.90;;;;;;5086778;28;20449;-76
2022/11/26 12:23:15;;;;;;;4.77;4.27;;;12.70;99.90;;;;;;5086400;28;20503;-78
2022/11/26 12:25:53;;;;;;;5.17;4.80;;;12.60;99.90;;;;;;5089742;28;21080;-77
2022/11/26 12:28:27;;;;;;;11.60;5.00;;;12.30;99.90;;;;;;5087690;28;20460;-78
2022/11/26 12:31:01;;;;;;;4.77;4.43;;;12.10;99.90;;;;;;5087641;28;20529;-78
2022/11/26 12:33:34;;;;;;;4.83;4.53;;;12.00;99.90;;;;;;5085144;27;20531;-78
2022/11/26 12:36:12;;;;;;;4.33;4.03;;;11.60;99.90;;;;;;5086409;28;20453;-77
2022/11/26 12:38:44;;;;;;;6.00;4.63;;;11.60;99.90;;;;;;5087501;28;20814;-77
2022/11/26 12:41:19;;;;;;;5.60;5.10;;;11.60;99.90;;;;;;5090863;27;20485;-77
2022/11/26 12:43:56;;;;;;;4.30;4.00;;;11.70;99.90;;;;;;5080504;27;20991;-78
2022/11/26 12:46:31;;;;;;;4.47;4.10;;;11.80;99.90;;;;;;5088063;28;20996;-77
2022/11/26 12:49:08;;;;;;;5.60;5.20;;;11.70;99.90;;;;;;5085194;27;21043;-79
2022/11/26 12:51:41;;;;;;;10.77;7.57;;;12.10;99.90;;;;;;5086420;27;20451;-79
2022/11/26 12:54:18;;;;;;;6.00;5.20;;;12.40;99.90;;;;;;5085083;28;20451;-79
2022/11/26 12:56:55;;;;;;;4.57;4.30;;;12.60;99.90;;;;;;5083506;28;20488;-79
2022/11/26 12:59:31;;;;;;;5.90;5.60;;;12.90;99.90;;;;;;5083026;28;20971;-79
2022/11/26 13:02:00;;;;;;;9.13;8.30;;;13.00;99.90;;;;;;5086407;28;20991;-79
2022/11/26 13:04:29;;;;;;;10.23;8.00;;;13.00;99.90;;;;;;5091787;28;20474;-79
2022/11/26 13:07:13;;;;;;;5.67;5.17;;;12.80;99.90;;;;;;5086652;28;20542;-80
2022/11/26 13:09:58;;;;;;;7.13;5.33;;;12.70;99.90;;;;;;5081794;28;20968;-78
2022/11/26 13:12:34;;;;;;;4.37;4.17;;;12.80;99.90;;;;;;5083444;28;20479;-79
2022/11/26 13:15:11;;;;;;;5.60;4.50;;;12.90;99.90;;;;;;5087673;27;20482;-80
2022/11/26 13:17:43;;;;;;;4.40;4.00;;;12.80;99.90;;;;;;5088892;28;20491;-78
2022/11/26 13:20:29;;;;;;;5.23;4.80;;;12.80;99.90;;;;;;5088711;28;20464;-79